Etusivu
METAR-TAF:

METAR-TAF

Lentoasemat :

Kuningas Abdilazizin kansainvälinen lentoasema

Jedda, Saudi-Arabia

Leveyspiiri: 21-42N, Pituuspiiri: 039-11E, korkeus merenpinnasta: 15 m

Tämänhetkinen sää

Tämä raportti tehtiin 58 minuuttia sitten, kello 05.00 UTC
Tuuli 17 kn idästä/koillisesta
Lämpötila 18°C
Kosteus 19%
Ilmanpaine 1021 hPa
Näkyvyys: 3500 m
hiekkatuisku

METAR: OEJN 260500Z 06017KT 3500 BLSA NSC 18/M06 Q1021 TEMPO 1000

Aika: 08:58 (05:58 UTC)

Sääennuste

Tämä raportti tehtiin 58 minuuttia sitten, kello 05.00 UTC
Ennuste voimassa 26. päivästä klo 06 UTC - 27. päivään klo 12 UTC
Tuuli 15 kn koillisesta puuskistuen 25 kn:hen
Näkyvyys: 7000 m
Ajoittain
26. päivästä klo 06 UTC - 26. päivään klo 10 UTC
Näkyvyys: 3500 m
pölymyrsky

TAF: OEJN 260500Z 2606/2712 05015G25KT 7000 NSC TEMPO 2606/2610 3500 BLDU

Säähavainnot ja -ennusteet yli 4000 lentoasemalta (METAR- ja TAF-raportit).

Käytössä olevat sääasemat on merkitty karttaan keltaisilla ja punaisilla pisteillä.

Aseta hiiri pisteen päälle nähdäksesi sääaseman nimen.

Klikkaa sitten nähdäksesi säähavainnot ja -ennusteet.

Kartan vaihtaminen: klikkaa mustalla rastilla varustettuja vihreitä pisteitä, niin voit zoomata sisään; viivalla varustettua vihreää pistettä, niin voit zoomata ulos tai vihreitä nuolia, niin pääset viereisille kartoille.


METAR-TAF: